sensor_id;sensor_type;location;lat;lon;timestamp;pressure;altitude;pressure_sealevel;temperature;humidity
21869;BME280;11099;41.564;23.296;2023-05-10T00:00:36;97843.41;;;12.63;100.00
21869;BME280;11099;41.564;23.296;2023-05-10T00:03:01;97833.34;;;12.69;100.00
21869;BME280;11099;41.564;23.296;2023-05-10T00:05:30;97817.34;;;12.60;100.00
21869;BME280;11099;41.564;23.296;2023-05-10T00:07:56;97854.44;;;12.79;100.00
21869;BME280;11099;41.564;23.296;2023-05-10T00:10:21;97819.38;;;12.63;100.00
21869;BME280;11099;41.564;23.296;2023-05-10T00:12:47;97670.91;;;11.70;100.00
21869;BME280;11099;41.564;23.296;2023-05-10T00:15:13;97874.78;;;12.97;100.00
21869;BME280;11099;41.564;23.296;2023-05-10T00:17:38;97854.00;;;12.94;100.00
21869;BME280;11099;41.564;23.296;2023-05-10T00:20:04;97846.00;;;13.03;100.00
21869;BME280;11099;41.564;23.296;2023-05-10T00:22:30;97848.22;;;13.09;100.00
21869;BME280;11099;41.564;23.296;2023-05-10T00:24:57;97733.53;;;12.21;100.00
21869;BME280;11099;41.564;23.296;2023-05-10T00:27:22;97812.47;;;12.62;100.00
21869;BME280;11099;41.564;23.296;2023-05-10T00:29:48;97873.34;;;13.00;100.00
21869;BME280;11099;41.564;23.296;2023-05-10T00:32:14;97844.09;;;12.86;100.00
21869;BME280;11099;41.564;23.296;2023-05-10T00:34:39;97867.06;;;13.13;100.00
21869;BME280;11099;41.564;23.296;2023-05-10T00:37:05;97786.69;;;12.57;100.00
21869;BME280;11099;41.564;23.296;2023-05-10T00:39:31;97876.19;;;13.03;100.00
21869;BME280;11099;41.564;23.296;2023-05-10T00:41:56;97813.88;;;12.59;100.00
21869;BME280;11099;41.564;23.296;2023-05-10T00:44:22;97802.44;;;12.76;100.00
21869;BME280;11099;41.564;23.296;2023-05-10T00:46:48;97878.69;;;13.00;100.00
21869;BME280;11099;41.564;23.296;2023-05-10T00:49:14;97698.72;;;11.86;100.00
21869;BME280;11099;41.564;23.296;2023-05-10T00:51:40;97708.22;;;12.01;100.00
21869;BME280;11099;41.564;23.296;2023-05-10T00:54:08;97836.09;;;12.95;100.00
21869;BME280;11099;41.564;23.296;2023-05-10T00:56:35;97718.03;;;12.32;100.00
21869;BME280;11099;41.564;23.296;2023-05-10T00:59:01;97780.13;;;12.72;100.00
21869;BME280;11099;41.564;23.296;2023-05-10T01:01:28;97855.63;;;13.21;100.00
21869;BME280;11099;41.564;23.296;2023-05-10T01:03:55;97660.72;;;11.72;100.00
21869;BME280;11099;41.564;23.296;2023-05-10T01:06:21;97729.09;;;12.08;100.00
21869;BME280;11099;41.564;23.296;2023-05-10T01:08:46;97804.47;;;12.71;100.00
21869;BME280;11099;41.564;23.296;2023-05-10T01:11:13;97794.19;;;12.47;100.00
21869;BME280;11099;41.564;23.296;2023-05-10T01:13:41;97847.06;;;12.84;100.00
21869;BME280;11099;41.564;23.296;2023-05-10T01:16:07;97835.91;;;12.91;100.00
21869;BME280;11099;41.564;23.296;2023-05-10T01:18:36;97839.84;;;12.93;100.00
21869;BME280;11099;41.564;23.296;2023-05-10T01:43:31;97813.13;;;12.93;100.00
21869;BME280;11099;41.564;23.296;2023-05-10T01:46:10;97811.13;;;13.08;100.00
21869;BME280;11099;41.564;23.296;2023-05-10T01:48:52;97825.69;;;13.02;100.00
21869;BME280;11099;41.564;23.296;2023-05-10T01:51:23;97791.44;;;12.78;100.00
21869;BME280;11099;41.564;23.296;2023-05-10T01:53:51;97779.78;;;12.65;100.00
21869;BME280;11099;41.564;23.296;2023-05-10T01:56:22;97847.91;;;13.02;100.00
21869;BME280;11099;41.564;23.296;2023-05-10T01:58:50;97754.63;;;12.57;100.00
21869;BME280;11099;41.564;23.296;2023-05-10T02:01:19;97762.34;;;12.59;100.00
21869;BME280;11099;41.564;23.296;2023-05-10T02:03:46;97776.84;;;12.92;100.00
21869;BME280;11099;41.564;23.296;2023-05-10T02:06:14;97803.88;;;13.00;100.00
21869;BME280;11099;41.564;23.296;2023-05-10T02:08:41;97813.31;;;12.97;100.00
21869;BME280;11099;41.564;23.296;2023-05-10T02:11:08;97815.66;;;13.16;100.00
21869;BME280;11099;41.564;23.296;2023-05-10T02:13:38;97730.44;;;12.80;100.00
21869;BME280;11099;41.564;23.296;2023-05-10T02:16:05;97793.47;;;13.07;100.00
21869;BME280;11099;41.564;23.296;2023-05-10T02:18:31;97739.88;;;12.95;100.00
21869;BME280;11099;41.564;23.296;2023-05-10T02:20:57;97753.41;;;12.89;100.00
21869;BME280;11099;41.564;23.296;2023-05-10T02:23:24;97824.47;;;13.34;100.00
21869;BME280;11099;41.564;23.296;2023-05-10T02:25:52;97829.66;;;13.39;100.00
21869;BME280;11099;41.564;23.296;2023-05-10T02:28:19;97796.81;;;13.21;100.00
21869;BME280;11099;41.564;23.296;2023-05-10T02:30:46;97758.13;;;12.84;100.00
21869;BME280;11099;41.564;23.296;2023-05-10T02:33:13;97836.75;;;13.26;100.00
21869;BME280;11099;41.564;23.296;2023-05-10T02:35:39;97835.50;;;13.32;100.00
21869;BME280;11099;41.564;23.296;2023-05-10T02:38:06;97731.06;;;12.85;100.00
21869;BME280;11099;41.564;23.296;2023-05-10T02:40:33;97759.38;;;13.04;100.00
21869;BME280;11099;41.564;23.296;2023-05-10T02:42:59;97822.91;;;13.59;100.00
21869;BME280;11099;41.564;23.296;2023-05-10T02:45:29;97767.56;;;13.33;100.00
21869;BME280;11099;41.564;23.296;2023-05-10T02:47:55;97794.09;;;13.64;100.00
21869;BME280;11099;41.564;23.296;2023-05-10T02:50:22;97791.34;;;13.82;100.00
21869;BME280;11099;41.564;23.296;2023-05-10T02:52:55;97811.38;;;13.76;100.00
21869;BME280;11099;41.564;23.296;2023-05-10T02:55:26;97814.34;;;13.83;100.00
21869;BME280;11099;41.564;23.296;2023-05-10T02:57:59;97812.44;;;13.83;100.00
21869;BME280;11099;41.564;23.296;2023-05-10T03:00:27;97792.38;;;13.51;100.00
21869;BME280;11099;41.564;23.296;2023-05-10T03:02:53;97779.50;;;13.36;100.00
21869;BME280;11099;41.564;23.296;2023-05-10T03:05:18;97737.53;;;13.19;100.00
21869;BME280;11099;41.564;23.296;2023-05-10T03:07:45;97674.38;;;12.62;100.00
21869;BME280;11099;41.564;23.296;2023-05-10T03:10:11;97696.50;;;12.89;100.00
21869;BME280;11099;41.564;23.296;2023-05-10T03:15:17;97818.13;;;13.73;100.00
21869;BME280;11099;41.564;23.296;2023-05-10T03:17:55;97817.06;;;13.74;100.00
21869;BME280;11099;41.564;23.296;2023-05-10T03:20:35;97817.66;;;13.80;100.00
21869;BME280;11099;41.564;23.296;2023-05-10T03:25:43;97757.63;;;13.34;100.00
21869;BME280;11099;41.564;23.296;2023-05-10T03:28:09;97779.00;;;13.51;100.00
21869;BME280;11099;41.564;23.296;2023-05-10T03:30:35;97803.22;;;13.63;100.00
21869;BME280;11099;41.564;23.296;2023-05-10T03:33:08;97730.00;;;13.21;100.00
21869;BME280;11099;41.564;23.296;2023-05-10T03:35:33;97733.59;;;13.16;100.00
21869;BME280;11099;41.564;23.296;2023-05-10T03:37:59;97842.69;;;13.66;100.00
21869;BME280;11099;41.564;23.296;2023-05-10T03:40:26;97836.75;;;13.43;100.00
21869;BME280;11099;41.564;23.296;2023-05-10T03:42:54;97829.78;;;13.77;100.00
21869;BME280;11099;41.564;23.296;2023-05-10T03:45:20;97761.56;;;13.19;100.00
21869;BME280;11099;41.564;23.296;2023-05-10T03:47:45;97819.94;;;13.52;100.00
21869;BME280;11099;41.564;23.296;2023-05-10T03:50:11;97812.34;;;13.45;100.00
21869;BME280;11099;41.564;23.296;2023-05-10T03:52:36;97816.63;;;13.46;100.00
21869;BME280;11099;41.564;23.296;2023-05-10T03:55:04;97833.56;;;13.07;100.00
21869;BME280;11099;41.564;23.296;2023-05-10T03:57:30;97827.47;;;13.15;100.00
21869;BME280;11099;41.564;23.296;2023-05-10T03:59:56;97772.44;;;13.05;100.00
21869;BME280;11099;41.564;23.296;2023-05-10T04:02:21;97736.41;;;13.20;100.00
21869;BME280;11099;41.564;23.296;2023-05-10T04:04:47;97845.03;;;13.85;100.00
21869;BME280;11099;41.564;23.296;2023-05-10T04:07:13;97863.00;;;13.76;100.00
21869;BME280;11099;41.564;23.296;2023-05-10T04:09:39;97772.13;;;13.33;100.00
21869;BME280;11099;41.564;23.296;2023-05-10T04:12:04;97734.69;;;13.41;100.00
21869;BME280;11099;41.564;23.296;2023-05-10T04:14:30;97828.81;;;13.90;100.00
21869;BME280;11099;41.564;23.296;2023-05-10T04:16:56;97866.97;;;14.17;100.00
21869;BME280;11099;41.564;23.296;2023-05-10T04:19:21;97846.84;;;14.11;100.00
21869;BME280;11099;41.564;23.296;2023-05-10T04:21:47;97817.88;;;13.49;100.00
21869;BME280;11099;41.564;23.296;2023-05-10T04:24:13;97826.69;;;13.49;100.00
21869;BME280;11099;41.564;23.296;2023-05-10T04:26:38;97721.47;;;13.10;100.00
21869;BME280;11099;41.564;23.296;2023-05-10T04:29:04;97783.44;;;13.47;100.00
21869;BME280;11099;41.564;23.296;2023-05-10T04:31:29;97759.81;;;12.45;100.00
21869;BME280;11099;41.564;23.296;2023-05-10T04:33:55;97868.03;;;13.08;100.00
21869;BME280;11099;41.564;23.296;2023-05-10T04:36:20;97761.84;;;12.31;100.00
21869;BME280;11099;41.564;23.296;2023-05-10T04:38:46;97764.66;;;12.34;100.00
21869;BME280;11099;41.564;23.296;2023-05-10T04:41:11;97774.59;;;12.69;100.00
21869;BME280;11099;41.564;23.296;2023-05-10T04:43:38;97778.06;;;12.60;100.00
21869;BME280;11099;41.564;23.296;2023-05-10T04:46:04;97846.63;;;13.08;100.00
21869;BME280;11099;41.564;23.296;2023-05-10T04:48:30;97790.13;;;12.58;100.00
21869;BME280;11099;41.564;23.296;2023-05-10T04:50:55;97751.75;;;12.28;100.00
21869;BME280;11099;41.564;23.296;2023-05-10T04:53:21;97728.25;;;11.90;100.00
21869;BME280;11099;41.564;23.296;2023-05-10T04:55:47;97803.94;;;12.43;100.00
21869;BME280;11099;41.564;23.296;2023-05-10T04:58:13;97772.28;;;12.19;100.00
21869;BME280;11099;41.564;23.296;2023-05-10T05:00:39;97723.56;;;12.53;100.00
21869;BME280;11099;41.564;23.296;2023-05-10T05:03:04;97749.16;;;12.80;100.00
21869;BME280;11099;41.564;23.296;2023-05-10T05:05:30;97786.59;;;13.32;100.00
21869;BME280;11099;41.564;23.296;2023-05-10T05:07:55;97780.28;;;13.19;100.00
21869;BME280;11099;41.564;23.296;2023-05-10T05:10:21;97843.78;;;13.83;100.00
21869;BME280;11099;41.564;23.296;2023-05-10T05:12:47;97738.13;;;13.42;100.00
21869;BME280;11099;41.564;23.296;2023-05-10T05:15:12;97791.06;;;13.75;100.00
21869;BME280;11099;41.564;23.296;2023-05-10T05:17:38;97739.19;;;13.50;100.00
21869;BME280;11099;41.564;23.296;2023-05-10T05:20:03;97769.06;;;13.69;100.00
21869;BME280;11099;41.564;23.296;2023-05-10T05:22:29;97704.16;;;13.34;100.00
21869;BME280;11099;41.564;23.296;2023-05-10T05:24:55;97839.25;;;14.21;100.00
21869;BME280;11099;41.564;23.296;2023-05-10T05:27:21;97766.75;;;13.41;100.00
21869;BME280;11099;41.564;23.296;2023-05-10T05:29:50;97861.94;;;14.15;100.00
21869;BME280;11099;41.564;23.296;2023-05-10T05:32:16;97876.44;;;14.23;100.00
21869;BME280;11099;41.564;23.296;2023-05-10T05:34:41;97799.56;;;13.77;100.00
21869;BME280;11099;41.564;23.296;2023-05-10T05:37:15;97842.41;;;14.15;100.00
21869;BME280;11099;41.564;23.296;2023-05-10T05:39:41;97862.09;;;14.19;100.00
21869;BME280;11099;41.564;23.296;2023-05-10T05:42:08;97812.09;;;14.02;100.00
21869;BME280;11099;41.564;23.296;2023-05-10T05:44:34;97869.63;;;14.34;100.00
21869;BME280;11099;41.564;23.296;2023-05-10T05:46:59;97850.59;;;14.18;100.00
21869;BME280;11099;41.564;23.296;2023-05-10T05:49:25;97752.72;;;13.53;100.00
21869;BME280;11099;41.564;23.296;2023-05-10T05:51:50;97864.13;;;14.22;100.00
21869;BME280;11099;41.564;23.296;2023-05-10T05:54:16;97757.88;;;13.67;100.00
21869;BME280;11099;41.564;23.296;2023-05-10T05:56:41;97805.91;;;14.10;100.00
21869;BME280;11099;41.564;23.296;2023-05-10T05:59:07;97831.56;;;14.11;100.00
21869;BME280;11099;41.564;23.296;2023-05-10T06:01:33;97888.03;;;14.36;100.00
21869;BME280;11099;41.564;23.296;2023-05-10T06:03:58;97798.88;;;13.88;100.00
21869;BME280;11099;41.564;23.296;2023-05-10T06:06:24;97833.16;;;14.04;100.00
21869;BME280;11099;41.564;23.296;2023-05-10T06:08:49;97800.81;;;13.79;100.00
21869;BME280;11099;41.564;23.296;2023-05-10T06:11:15;97871.88;;;14.15;100.00
21869;BME280;11099;41.564;23.296;2023-05-10T06:13:40;97832.53;;;14.07;100.00
21869;BME280;11099;41.564;23.296;2023-05-10T06:16:07;97894.16;;;14.36;100.00
21869;BME280;11099;41.564;23.296;2023-05-10T06:18:33;97841.78;;;14.18;100.00
21869;BME280;11099;41.564;23.296;2023-05-10T06:20:58;97818.13;;;13.82;100.00
21869;BME280;11099;41.564;23.296;2023-05-10T06:23:24;97855.81;;;14.15;100.00
21869;BME280;11099;41.564;23.296;2023-05-10T06:25:51;97904.06;;;14.53;100.00
21869;BME280;11099;41.564;23.296;2023-05-10T06:28:17;97908.78;;;14.56;100.00
21869;BME280;11099;41.564;23.296;2023-05-10T06:30:47;97786.63;;;13.79;100.00
21869;BME280;11099;41.564;23.296;2023-05-10T06:33:13;97931.63;;;14.62;100.00
21869;BME280;11099;41.564;23.296;2023-05-10T06:35:39;97828.81;;;13.90;100.00
21869;BME280;11099;41.564;23.296;2023-05-10T06:38:04;97795.50;;;13.62;100.00
21869;BME280;11099;41.564;23.296;2023-05-10T06:40:30;97871.19;;;14.27;100.00
21869;BME280;11099;41.564;23.296;2023-05-10T06:42:55;97865.56;;;14.11;100.00
21869;BME280;11099;41.564;23.296;2023-05-10T06:45:21;97894.16;;;14.36;100.00
21869;BME280;11099;41.564;23.296;2023-05-10T06:47:46;97889.66;;;14.19;100.00
21869;BME280;11099;41.564;23.296;2023-05-10T06:50:11;97920.66;;;14.29;100.00
21869;BME280;11099;41.564;23.296;2023-05-10T06:52:37;97777.91;;;13.35;100.00
21869;BME280;11099;41.564;23.296;2023-05-10T06:55:04;97820.81;;;13.73;100.00
21869;BME280;11099;41.564;23.296;2023-05-10T06:57:30;97840.03;;;13.66;100.00
21869;BME280;11099;41.564;23.296;2023-05-10T06:59:55;97819.72;;;13.57;100.00
21869;BME280;11099;41.564;23.296;2023-05-10T07:02:22;97849.63;;;13.76;100.00
21869;BME280;11099;41.564;23.296;2023-05-10T07:04:48;97853.34;;;13.92;100.00
21869;BME280;11099;41.564;23.296;2023-05-10T07:07:14;97834.22;;;13.56;100.00
21869;BME280;11099;41.564;23.296;2023-05-10T07:09:39;97883.78;;;13.70;100.00
21869;BME280;11099;41.564;23.296;2023-05-10T07:12:05;97923.72;;;14.02;100.00
21869;BME280;11099;41.564;23.296;2023-05-10T07:14:30;97838.00;;;13.55;100.00
21869;BME280;11099;41.564;23.296;2023-05-10T07:16:56;97870.72;;;13.69;100.00
21869;BME280;11099;41.564;23.296;2023-05-10T07:19:22;97933.16;;;13.99;100.00
21869;BME280;11099;41.564;23.296;2023-05-10T07:21:47;97821.50;;;13.27;100.00
21869;BME280;11099;41.564;23.296;2023-05-10T07:24:13;97902.34;;;13.76;100.00
21869;BME280;11099;41.564;23.296;2023-05-10T07:26:38;97880.94;;;13.76;100.00
21869;BME280;11099;41.564;23.296;2023-05-10T07:29:04;97886.41;;;13.96;100.00
21869;BME280;11099;41.564;23.296;2023-05-10T07:31:29;97840.69;;;13.55;100.00
21869;BME280;11099;41.564;23.296;2023-05-10T07:33:54;97836.75;;;13.52;100.00
21869;BME280;11099;41.564;23.296;2023-05-10T07:36:20;97922.28;;;14.13;100.00
21869;BME280;11099;41.564;23.296;2023-05-10T07:38:45;97821.97;;;13.37;100.00
21869;BME280;11099;41.564;23.296;2023-05-10T07:41:11;97936.56;;;14.34;100.00
21869;BME280;11099;41.564;23.296;2023-05-10T07:43:37;97881.03;;;14.05;100.00
21869;BME280;11099;41.564;23.296;2023-05-10T07:46:03;97846.44;;;13.83;100.00
21869;BME280;11099;41.564;23.296;2023-05-10T07:48:28;97870.19;;;14.02;100.00
21869;BME280;11099;41.564;23.296;2023-05-10T07:50:54;97855.59;;;13.73;100.00
21869;BME280;11099;41.564;23.296;2023-05-10T07:53:19;97868.47;;;13.88;100.00
21869;BME280;11099;41.564;23.296;2023-05-10T07:55:50;97948.06;;;14.35;100.00
21869;BME280;11099;41.564;23.296;2023-05-10T07:58:15;97945.84;;;14.28;100.00
21869;BME280;11099;41.564;23.296;2023-05-10T08:00:41;97922.97;;;14.39;100.00
21869;BME280;11099;41.564;23.296;2023-05-10T08:03:06;97871.88;;;14.06;100.00
21869;BME280;11099;41.564;23.296;2023-05-10T08:05:32;97890.34;;;14.55;100.00
21869;BME280;11099;41.564;23.296;2023-05-10T08:07:57;97938.00;;;14.79;100.00
21869;BME280;11099;41.564;23.296;2023-05-10T08:10:24;97944.47;;;15.07;100.00
21869;BME280;11099;41.564;23.296;2023-05-10T08:12:49;97885.03;;;14.37;100.00
21869;BME280;11099;41.564;23.296;2023-05-10T08:15:15;97958.09;;;14.93;100.00
21869;BME280;11099;41.564;23.296;2023-05-10T08:17:40;97855.34;;;14.13;100.00
21869;BME280;11099;41.564;23.296;2023-05-10T08:20:07;97964.47;;;14.80;100.00
21869;BME280;11099;41.564;23.296;2023-05-10T08:22:33;97915.75;;;14.40;100.00
21869;BME280;11099;41.564;23.296;2023-05-10T08:24:58;97813.72;;;13.86;100.00
21869;BME280;11099;41.564;23.296;2023-05-10T08:27:23;97920.91;;;14.92;100.00
21869;BME280;11099;41.564;23.296;2023-05-10T08:29:49;97855.69;;;14.49;100.00
21869;BME280;11099;41.564;23.296;2023-05-10T08:32:15;97947.25;;;14.90;100.00
21869;BME280;11099;41.564;23.296;2023-05-10T08:34:40;97883.72;;;14.43;100.00
21869;BME280;11099;41.564;23.296;2023-05-10T08:37:06;97919.72;;;14.72;100.00
21869;BME280;11099;41.564;23.296;2023-05-10T08:39:35;97962.03;;;14.96;100.00
21869;BME280;11099;41.564;23.296;2023-05-10T08:42:03;97961.44;;;14.90;100.00
21869;BME280;11099;41.564;23.296;2023-05-10T08:44:31;97960.66;;;14.90;100.00
21869;BME280;11099;41.564;23.296;2023-05-10T08:46:59;97962.13;;;15.08;100.00
21869;BME280;11099;41.564;23.296;2023-05-10T08:49:27;97973.00;;;15.12;100.00
21869;BME280;11099;41.564;23.296;2023-05-10T08:51:55;97941.00;;;15.07;100.00
21869;BME280;11099;41.564;23.296;2023-05-10T08:54:25;97900.34;;;14.75;100.00
21869;BME280;11099;41.564;23.296;2023-05-10T08:56:53;97940.94;;;15.15;100.00
21869;BME280;11099;41.564;23.296;2023-05-10T08:59:19;97864.63;;;14.62;100.00
21869;BME280;11099;41.564;23.296;2023-05-10T09:01:45;97893.78;;;14.64;100.00
21869;BME280;11099;41.564;23.296;2023-05-10T09:04:13;97948.72;;;15.08;100.00
21869;BME280;11099;41.564;23.296;2023-05-10T09:06:39;97880.53;;;14.67;100.00
21869;BME280;11099;41.564;23.296;2023-05-10T09:09:05;97920.59;;;15.14;100.00
21869;BME280;11099;41.564;23.296;2023-05-10T09:11:31;97851.69;;;14.64;100.00
21869;BME280;11099;41.564;23.296;2023-05-10T09:13:57;97833.69;;;14.35;100.00
21869;BME280;11099;41.564;23.296;2023-05-10T09:16:23;97877.84;;;14.67;100.00
21869;BME280;11099;41.564;23.296;2023-05-10T09:18:48;97909.75;;;14.81;100.00
21869;BME280;11099;41.564;23.296;2023-05-10T09:21:14;97806.38;;;14.42;100.00
21869;BME280;11099;41.564;23.296;2023-05-10T09:23:44;97917.88;;;14.93;100.00
21869;BME280;11099;41.564;23.296;2023-05-10T09:26:10;97905.22;;;15.02;100.00
21869;BME280;11099;41.564;23.296;2023-05-10T09:28:57;97903.28;;;15.12;100.00
21869;BME280;11099;41.564;23.296;2023-05-10T09:31:42;97950.00;;;15.32;100.00
21869;BME280;11099;41.564;23.296;2023-05-10T09:34:09;97910.72;;;15.27;100.00
21869;BME280;11099;41.564;23.296;2023-05-10T09:36:35;97905.69;;;15.05;100.00
21869;BME280;11099;41.564;23.296;2023-05-10T09:39:00;97846.31;;;14.64;100.00
21869;BME280;11099;41.564;23.296;2023-05-10T09:41:27;97885.88;;;14.97;100.00
21869;BME280;11099;41.564;23.296;2023-05-10T09:43:56;97827.28;;;14.87;100.00
21869;BME280;11099;41.564;23.296;2023-05-10T09:46:21;97811.41;;;15.02;100.00
21869;BME280;11099;41.564;23.296;2023-05-10T09:48:50;97846.69;;;15.25;100.00
21869;BME280;11099;41.564;23.296;2023-05-10T09:51:24;97899.28;;;15.80;100.00
21869;BME280;11099;41.564;23.296;2023-05-10T09:54:15;97931.13;;;15.70;100.00
21869;BME280;11099;41.564;23.296;2023-05-10T09:56:42;97922.91;;;15.87;100.00
21869;BME280;11099;41.564;23.296;2023-05-10T09:59:10;97925.13;;;16.06;100.00
21869;BME280;11099;41.564;23.296;2023-05-10T10:01:37;97923.38;;;15.89;100.00
21869;BME280;11099;41.564;23.296;2023-05-10T10:04:06;97825.38;;;15.29;100.00
21869;BME280;11099;41.564;23.296;2023-05-10T10:06:39;97922.81;;;16.17;100.00
21869;BME280;11099;41.564;23.296;2023-05-10T10:09:06;97928.19;;;16.17;100.00
21869;BME280;11099;41.564;23.296;2023-05-10T10:11:33;97920.91;;;16.17;100.00
21869;BME280;11099;41.564;23.296;2023-05-10T10:13:59;97803.63;;;15.43;100.00
21869;BME280;11099;41.564;23.296;2023-05-10T10:16:26;97781.78;;;15.32;100.00
21869;BME280;11099;41.564;23.296;2023-05-10T10:18:52;97811.03;;;15.67;100.00
21869;BME280;11099;41.564;23.296;2023-05-10T10:21:18;97808.69;;;15.77;100.00
21869;BME280;11099;41.564;23.296;2023-05-10T10:23:44;97895.31;;;16.44;100.00
21869;BME280;11099;41.564;23.296;2023-05-10T10:26:11;97876.03;;;16.30;100.00
21869;BME280;11099;41.564;23.296;2023-05-10T10:28:49;97919.78;;;16.30;100.00
21869;BME280;11099;41.564;23.296;2023-05-10T10:31:27;97912.78;;;16.50;100.00
21869;BME280;11099;41.564;23.296;2023-05-10T10:34:05;97853.75;;;16.17;100.00
21869;BME280;11099;41.564;23.296;2023-05-10T10:36:39;97926.81;;;16.80;100.00
21869;BME280;11099;41.564;23.296;2023-05-10T10:39:09;97864.38;;;16.26;100.00
21869;BME280;11099;41.564;23.296;2023-05-10T10:41:55;97923.19;;;16.40;100.00
21869;BME280;11099;41.564;23.296;2023-05-10T10:47:03;97922.09;;;16.07;100.00
21869;BME280;11099;41.564;23.296;2023-05-10T10:49:33;97879.00;;;16.04;100.00
21869;BME280;11099;41.564;23.296;2023-05-10T10:52:22;97927.28;;;16.25;100.00
21869;BME280;11099;41.564;23.296;2023-05-10T10:57:47;97912.22;;;16.45;100.00
21869;BME280;11099;41.564;23.296;2023-05-10T11:00:31;97921.50;;;16.35;100.00
21869;BME280;11099;41.564;23.296;2023-05-10T11:03:06;97926.09;;;16.47;100.00
21869;BME280;11099;41.564;23.296;2023-05-10T11:10:34;97927.50;;;16.20;100.00
21869;BME280;11099;41.564;23.296;2023-05-10T11:13:03;97890.78;;;16.12;100.00
21869;BME280;11099;41.564;23.296;2023-05-10T11:15:48;97929.41;;;16.31;100.00
21869;BME280;11099;41.564;23.296;2023-05-10T11:18:23;97895.50;;;15.81;100.00
21869;BME280;11099;41.564;23.296;2023-05-10T11:21:00;97804.28;;;15.61;100.00
21869;BME280;11099;41.564;23.296;2023-05-10T11:26:08;97882.50;;;16.17;100.00
21869;BME280;11099;41.564;23.296;2023-05-10T11:28:44;97901.06;;;16.10;100.00
21869;BME280;11099;41.564;23.296;2023-05-10T11:31:10;97864.72;;;15.79;100.00
21869;BME280;11099;41.564;23.296;2023-05-10T11:33:57;97838.03;;;15.83;100.00
21869;BME280;11099;41.564;23.296;2023-05-10T11:36:27;97906.50;;;16.34;100.00
21869;BME280;11099;41.564;23.296;2023-05-10T11:38:56;97874.75;;;16.03;100.00
21869;BME280;11099;41.564;23.296;2023-05-10T11:41:23;97923.38;;;16.22;100.00
21869;BME280;11099;41.564;23.296;2023-05-10T11:43:50;97930.16;;;16.07;100.00
21869;BME280;11099;41.564;23.296;2023-05-10T11:46:19;97833.22;;;15.55;100.00
21869;BME280;11099;41.564;23.296;2023-05-10T11:48:46;97925.88;;;15.94;100.00
21869;BME280;11099;41.564;23.296;2023-05-10T11:51:12;97794.03;;;15.21;100.00
21869;BME280;11099;41.564;23.296;2023-05-10T11:53:38;97851.94;;;15.64;100.00
21869;BME280;11099;41.564;23.296;2023-05-10T11:56:07;97931.06;;;16.12;100.00
21869;BME280;11099;41.564;23.296;2023-05-10T11:58:35;97867.38;;;15.67;100.00
21869;BME280;11099;41.564;23.296;2023-05-10T12:01:01;97863.31;;;15.40;100.00
21869;BME280;11099;41.564;23.296;2023-05-10T12:03:27;97924.75;;;15.53;100.00
21869;BME280;11099;41.564;23.296;2023-05-10T12:05:54;97943.59;;;15.87;100.00
21869;BME280;11099;41.564;23.296;2023-05-10T12:08:21;97791.91;;;15.14;100.00
21869;BME280;11099;41.564;23.296;2023-05-10T12:10:49;97894.59;;;15.57;100.00
21869;BME280;11099;41.564;23.296;2023-05-10T12:13:15;97869.66;;;15.56;100.00
21869;BME280;11099;41.564;23.296;2023-05-10T12:15:41;97924.16;;;15.90;100.00
21869;BME280;11099;41.564;23.296;2023-05-10T12:18:11;97920.50;;;15.94;100.00
21869;BME280;11099;41.564;23.296;2023-05-10T12:20:37;97903.13;;;15.92;100.00
21869;BME280;11099;41.564;23.296;2023-05-10T12:23:04;97837.72;;;15.21;100.00
21869;BME280;11099;41.564;23.296;2023-05-10T12:25:34;97918.59;;;15.95;100.00
21869;BME280;11099;41.564;23.296;2023-05-10T12:28:03;97859.66;;;15.44;100.00
21869;BME280;11099;41.564;23.296;2023-05-10T12:30:32;97933.41;;;15.80;100.00
21869;BME280;11099;41.564;23.296;2023-05-10T12:33:09;97907.25;;;15.77;100.00
21869;BME280;11099;41.564;23.296;2023-05-10T12:38:44;97916.38;;;15.76;100.00
21869;BME280;11099;41.564;23.296;2023-05-10T12:41:14;97903.31;;;15.74;100.00
21869;BME280;11099;41.564;23.296;2023-05-10T12:43:40;97843.88;;;15.43;100.00
21869;BME280;11099;41.564;23.296;2023-05-10T12:46:06;97889.03;;;15.62;100.00
21869;BME280;11099;41.564;23.296;2023-05-10T12:48:32;97861.72;;;15.60;100.00
21869;BME280;11099;41.564;23.296;2023-05-10T12:50:59;97830.16;;;15.23;100.00
21869;BME280;11099;41.564;23.296;2023-05-10T12:53:25;97831.25;;;15.43;100.00
21869;BME280;11099;41.564;23.296;2023-05-10T12:55:51;97860.16;;;15.59;100.00
21869;BME280;11099;41.564;23.296;2023-05-10T12:58:16;97773.34;;;14.67;100.00
21869;BME280;11099;41.564;23.296;2023-05-10T13:00:42;97753.94;;;14.91;100.00
21869;BME280;11099;41.564;23.296;2023-05-10T13:03:09;97831.13;;;15.40;100.00
21869;BME280;11099;41.564;23.296;2023-05-10T13:05:35;97809.28;;;15.50;100.00
21869;BME280;11099;41.564;23.296;2023-05-10T13:08:00;97873.41;;;15.97;100.00
21869;BME280;11099;41.564;23.296;2023-05-10T13:10:26;97872.09;;;15.82;100.00
21869;BME280;11099;41.564;23.296;2023-05-10T13:12:52;97796.56;;;15.38;100.00
21869;BME280;11099;41.564;23.296;2023-05-10T13:15:17;97855.16;;;16.02;100.00
21869;BME280;11099;41.564;23.296;2023-05-10T13:17:43;97829.06;;;15.91;100.00
21869;BME280;11099;41.564;23.296;2023-05-10T13:20:09;97816.78;;;16.02;100.00
21869;BME280;11099;41.564;23.296;2023-05-10T13:22:35;97782.22;;;15.55;100.00
21869;BME280;11099;41.564;23.296;2023-05-10T13:25:01;97878.38;;;16.31;100.00